sensor_id;sensor_type;location;lat;lon;timestamp;temperature;humidity
2993;DHT22;1506;48.932;9.478;2024-03-07T00:01:02;3.70;99.90
2993;DHT22;1506;48.932;9.478;2024-03-07T00:03:30;3.60;99.90
2993;DHT22;1506;48.932;9.478;2024-03-07T00:05:57;3.40;99.90
2993;DHT22;1506;48.932;9.478;2024-03-07T00:08:24;3.90;99.90
2993;DHT22;1506;48.932;9.478;2024-03-07T00:10:53;3.80;99.90
2993;DHT22;1506;48.932;9.478;2024-03-07T00:13:20;3.70;99.90
2993;DHT22;1506;48.932;9.478;2024-03-07T00:15:48;3.80;99.90
2993;DHT22;1506;48.932;9.478;2024-03-07T00:18:15;3.90;99.90
2993;DHT22;1506;48.932;9.478;2024-03-07T00:20:45;4.00;99.90
2993;DHT22;1506;48.932;9.478;2024-03-07T00:23:12;4.10;99.90
2993;DHT22;1506;48.932;9.478;2024-03-07T00:25:39;4.10;99.90
2993;DHT22;1506;48.932;9.478;2024-03-07T00:28:06;4.10;99.90
2993;DHT22;1506;48.932;9.478;2024-03-07T00:30:33;4.10;99.90
2993;DHT22;1506;48.932;9.478;2024-03-07T00:33:00;4.00;99.90
2993;DHT22;1506;48.932;9.478;2024-03-07T00:35:28;4.30;99.90
2993;DHT22;1506;48.932;9.478;2024-03-07T00:37:58;4.20;99.90
2993;DHT22;1506;48.932;9.478;2024-03-07T00:40:25;4.10;99.90
2993;DHT22;1506;48.932;9.478;2024-03-07T00:42:53;4.10;99.90
2993;DHT22;1506;48.932;9.478;2024-03-07T00:45:20;4.00;99.90
2993;DHT22;1506;48.932;9.478;2024-03-07T00:47:47;3.90;99.90
2993;DHT22;1506;48.932;9.478;2024-03-07T00:50:15;3.70;99.90
2993;DHT22;1506;48.932;9.478;2024-03-07T00:52:42;3.70;99.90
2993;DHT22;1506;48.932;9.478;2024-03-07T00:55:09;3.80;99.90
2993;DHT22;1506;48.932;9.478;2024-03-07T00:57:36;4.00;99.90
2993;DHT22;1506;48.932;9.478;2024-03-07T01:00:03;4.00;99.90
2993;DHT22;1506;48.932;9.478;2024-03-07T01:02:32;3.80;99.90
2993;DHT22;1506;48.932;9.478;2024-03-07T01:05:01;3.70;99.90
2993;DHT22;1506;48.932;9.478;2024-03-07T01:07:28;3.70;99.90
2993;DHT22;1506;48.932;9.478;2024-03-07T01:09:56;3.60;99.90
2993;DHT22;1506;48.932;9.478;2024-03-07T01:12:27;3.60;99.90
2993;DHT22;1506;48.932;9.478;2024-03-07T01:15:01;3.60;99.90
2993;DHT22;1506;48.932;9.478;2024-03-07T01:17:31;3.80;99.90
2993;DHT22;1506;48.932;9.478;2024-03-07T01:19:58;3.60;99.90
2993;DHT22;1506;48.932;9.478;2024-03-07T01:22:25;3.90;99.90
2993;DHT22;1506;48.932;9.478;2024-03-07T01:24:56;3.60;99.90
2993;DHT22;1506;48.932;9.478;2024-03-07T01:27:23;3.40;99.90
2993;DHT22;1506;48.932;9.478;2024-03-07T01:29:51;3.50;99.90
2993;DHT22;1506;48.932;9.478;2024-03-07T01:32:20;3.20;99.90
2993;DHT22;1506;48.932;9.478;2024-03-07T01:34:47;3.10;99.90
2993;DHT22;1506;48.932;9.478;2024-03-07T01:37:15;3.60;99.90
2993;DHT22;1506;48.932;9.478;2024-03-07T01:39:41;3.30;99.90
2993;DHT22;1506;48.932;9.478;2024-03-07T01:42:08;3.40;99.90
2993;DHT22;1506;48.932;9.478;2024-03-07T01:44:35;3.30;99.90
2993;DHT22;1506;48.932;9.478;2024-03-07T01:47:02;3.20;99.90
2993;DHT22;1506;48.932;9.478;2024-03-07T01:49:30;3.20;99.90
2993;DHT22;1506;48.932;9.478;2024-03-07T01:51:58;3.30;99.90
2993;DHT22;1506;48.932;9.478;2024-03-07T01:54:28;3.20;99.90
2993;DHT22;1506;48.932;9.478;2024-03-07T01:56:55;3.20;99.90
2993;DHT22;1506;48.932;9.478;2024-03-07T01:59:23;3.20;99.90
2993;DHT22;1506;48.932;9.478;2024-03-07T02:01:51;3.00;99.90
2993;DHT22;1506;48.932;9.478;2024-03-07T02:04:18;3.10;99.90
2993;DHT22;1506;48.932;9.478;2024-03-07T02:06:45;3.10;99.90
2993;DHT22;1506;48.932;9.478;2024-03-07T02:09:12;2.90;99.90
2993;DHT22;1506;48.932;9.478;2024-03-07T02:11:40;2.90;99.90
2993;DHT22;1506;48.932;9.478;2024-03-07T02:14:08;3.00;99.90
2993;DHT22;1506;48.932;9.478;2024-03-07T02:16:35;3.10;99.90
2993;DHT22;1506;48.932;9.478;2024-03-07T02:19:02;3.00;99.90
2993;DHT22;1506;48.932;9.478;2024-03-07T02:21:29;3.10;99.90
2993;DHT22;1506;48.932;9.478;2024-03-07T02:23:56;2.90;99.90
2993;DHT22;1506;48.932;9.478;2024-03-07T02:26:23;3.00;99.90
2993;DHT22;1506;48.932;9.478;2024-03-07T02:28:50;2.90;99.90
2993;DHT22;1506;48.932;9.478;2024-03-07T02:31:17;2.80;99.90
2993;DHT22;1506;48.932;9.478;2024-03-07T02:33:45;2.80;99.90
2993;DHT22;1506;48.932;9.478;2024-03-07T02:36:13;2.80;99.90
2993;DHT22;1506;48.932;9.478;2024-03-07T02:38:40;3.00;99.90
2993;DHT22;1506;48.932;9.478;2024-03-07T02:41:07;2.70;99.90
2993;DHT22;1506;48.932;9.478;2024-03-07T02:43:34;2.70;99.90
2993;DHT22;1506;48.932;9.478;2024-03-07T02:46:04;2.60;99.90
2993;DHT22;1506;48.932;9.478;2024-03-07T02:48:32;2.50;99.90
2993;DHT22;1506;48.932;9.478;2024-03-07T02:50:59;2.40;99.90
2993;DHT22;1506;48.932;9.478;2024-03-07T02:53:26;2.40;99.90
2993;DHT22;1506;48.932;9.478;2024-03-07T02:55:53;2.40;99.90
2993;DHT22;1506;48.932;9.478;2024-03-07T02:58:21;2.20;99.90
2993;DHT22;1506;48.932;9.478;2024-03-07T03:00:47;2.20;99.90
2993;DHT22;1506;48.932;9.478;2024-03-07T03:03:16;2.10;99.90
2993;DHT22;1506;48.932;9.478;2024-03-07T03:05:43;2.10;99.90
2993;DHT22;1506;48.932;9.478;2024-03-07T03:08:10;2.30;99.90
2993;DHT22;1506;48.932;9.478;2024-03-07T03:10:37;2.30;99.90
2993;DHT22;1506;48.932;9.478;2024-03-07T03:13:04;2.10;99.90
2993;DHT22;1506;48.932;9.478;2024-03-07T03:15:31;2.10;99.90
2993;DHT22;1506;48.932;9.478;2024-03-07T03:17:58;2.10;99.90
2993;DHT22;1506;48.932;9.478;2024-03-07T03:20:30;2.10;99.90
2993;DHT22;1506;48.932;9.478;2024-03-07T03:23:06;2.10;99.90
2993;DHT22;1506;48.932;9.478;2024-03-07T03:25:47;2.10;99.90
2993;DHT22;1506;48.932;9.478;2024-03-07T03:28:17;2.10;99.90
2993;DHT22;1506;48.932;9.478;2024-03-07T03:30:47;1.80;99.90
2993;DHT22;1506;48.932;9.478;2024-03-07T03:33:14;1.90;99.90
2993;DHT22;1506;48.932;9.478;2024-03-07T03:35:42;1.70;99.90
2993;DHT22;1506;48.932;9.478;2024-03-07T03:38:10;1.70;99.90
2993;DHT22;1506;48.932;9.478;2024-03-07T03:40:37;1.70;99.90
2993;DHT22;1506;48.932;9.478;2024-03-07T03:43:04;1.50;99.90
2993;DHT22;1506;48.932;9.478;2024-03-07T03:45:31;1.40;99.90
2993;DHT22;1506;48.932;9.478;2024-03-07T03:48:01;1.30;99.90
2993;DHT22;1506;48.932;9.478;2024-03-07T03:50:28;1.20;99.90
2993;DHT22;1506;48.932;9.478;2024-03-07T03:52:56;1.20;99.90
2993;DHT22;1506;48.932;9.478;2024-03-07T03:55:28;1.20;99.90
2993;DHT22;1506;48.932;9.478;2024-03-07T03:57:55;1.20;99.90
2993;DHT22;1506;48.932;9.478;2024-03-07T04:00:22;1.20;99.90
2993;DHT22;1506;48.932;9.478;2024-03-07T04:02:50;1.20;99.90
2993;DHT22;1506;48.932;9.478;2024-03-07T04:05:19;1.20;99.90
2993;DHT22;1506;48.932;9.478;2024-03-07T04:07:47;0.80;99.90
2993;DHT22;1506;48.932;9.478;2024-03-07T04:10:15;0.70;99.90
2993;DHT22;1506;48.932;9.478;2024-03-07T04:12:44;0.60;99.90
2993;DHT22;1506;48.932;9.478;2024-03-07T04:15:12;0.60;99.90
2993;DHT22;1506;48.932;9.478;2024-03-07T04:17:40;0.60;99.90
2993;DHT22;1506;48.932;9.478;2024-03-07T04:20:07;0.60;99.90
2993;DHT22;1506;48.932;9.478;2024-03-07T04:22:37;0.70;99.90
2993;DHT22;1506;48.932;9.478;2024-03-07T04:25:07;0.70;99.90
2993;DHT22;1506;48.932;9.478;2024-03-07T04:27:34;0.80;99.90
2993;DHT22;1506;48.932;9.478;2024-03-07T04:30:04;0.80;99.90
2993;DHT22;1506;48.932;9.478;2024-03-07T04:32:32;0.70;99.90
2993;DHT22;1506;48.932;9.478;2024-03-07T04:35:01;0.60;99.90
2993;DHT22;1506;48.932;9.478;2024-03-07T04:37:30;0.60;99.90
2993;DHT22;1506;48.932;9.478;2024-03-07T04:39:58;0.50;99.90
2993;DHT22;1506;48.932;9.478;2024-03-07T04:42:25;0.60;99.90
2993;DHT22;1506;48.932;9.478;2024-03-07T04:44:52;0.10;99.90
2993;DHT22;1506;48.932;9.478;2024-03-07T04:47:19;0.30;99.90
2993;DHT22;1506;48.932;9.478;2024-03-07T04:49:46;0.00;99.90
2993;DHT22;1506;48.932;9.478;2024-03-07T04:52:13;0.10;99.90
2993;DHT22;1506;48.932;9.478;2024-03-07T04:54:40;0.10;99.90
2993;DHT22;1506;48.932;9.478;2024-03-07T04:57:07;0.00;99.90
2993;DHT22;1506;48.932;9.478;2024-03-07T04:59:34;0.00;99.90
2993;DHT22;1506;48.932;9.478;2024-03-07T05:02:01;-0.10;99.90
2993;DHT22;1506;48.932;9.478;2024-03-07T05:04:28;0.00;99.90
2993;DHT22;1506;48.932;9.478;2024-03-07T05:06:57;0.00;99.90
2993;DHT22;1506;48.932;9.478;2024-03-07T05:09:24;0.10;99.90
2993;DHT22;1506;48.932;9.478;2024-03-07T05:11:53;0.40;99.90
2993;DHT22;1506;48.932;9.478;2024-03-07T05:14:21;0.40;99.90
2993;DHT22;1506;48.932;9.478;2024-03-07T05:16:52;0.30;99.90
2993;DHT22;1506;48.932;9.478;2024-03-07T05:19:32;0.40;99.90
2993;DHT22;1506;48.932;9.478;2024-03-07T05:21:59;0.40;99.90
2993;DHT22;1506;48.932;9.478;2024-03-07T05:24:27;0.40;99.90
2993;DHT22;1506;48.932;9.478;2024-03-07T05:26:54;0.40;99.90
2993;DHT22;1506;48.932;9.478;2024-03-07T05:29:21;0.40;99.90
2993;DHT22;1506;48.932;9.478;2024-03-07T05:31:48;0.40;99.90
2993;DHT22;1506;48.932;9.478;2024-03-07T05:34:15;0.40;99.90
2993;DHT22;1506;48.932;9.478;2024-03-07T05:36:45;0.20;99.90
2993;DHT22;1506;48.932;9.478;2024-03-07T05:39:13;0.10;99.90
2993;DHT22;1506;48.932;9.478;2024-03-07T05:41:42;0.10;99.90
2993;DHT22;1506;48.932;9.478;2024-03-07T05:44:09;0.10;99.90
2993;DHT22;1506;48.932;9.478;2024-03-07T05:49:04;0.00;99.90
2993;DHT22;1506;48.932;9.478;2024-03-07T05:51:31;0.10;99.90
2993;DHT22;1506;48.932;9.478;2024-03-07T05:53:58;0.00;99.90
2993;DHT22;1506;48.932;9.478;2024-03-07T05:56:25;0.20;99.90
2993;DHT22;1506;48.932;9.478;2024-03-07T05:58:52;0.30;99.90
2993;DHT22;1506;48.932;9.478;2024-03-07T06:01:19;0.30;99.90
2993;DHT22;1506;48.932;9.478;2024-03-07T06:03:46;0.20;99.90
2993;DHT22;1506;48.932;9.478;2024-03-07T06:06:15;0.20;99.90
2993;DHT22;1506;48.932;9.478;2024-03-07T06:08:46;0.20;99.90
2993;DHT22;1506;48.932;9.478;2024-03-07T06:11:12;0.20;99.90
2993;DHT22;1506;48.932;9.478;2024-03-07T06:13:40;0.30;99.90
2993;DHT22;1506;48.932;9.478;2024-03-07T06:16:07;0.30;99.90
2993;DHT22;1506;48.932;9.478;2024-03-07T06:18:34;0.40;99.90
2993;DHT22;1506;48.932;9.478;2024-03-07T06:21:01;0.40;99.90
2993;DHT22;1506;48.932;9.478;2024-03-07T06:23:32;0.30;99.90
2993;DHT22;1506;48.932;9.478;2024-03-07T06:25:59;0.40;99.90
2993;DHT22;1506;48.932;9.478;2024-03-07T06:28:27;0.50;99.90
2993;DHT22;1506;48.932;9.478;2024-03-07T06:30:57;0.60;99.90
2993;DHT22;1506;48.932;9.478;2024-03-07T06:33:24;0.80;99.90
2993;DHT22;1506;48.932;9.478;2024-03-07T06:35:53;1.00;99.90
2993;DHT22;1506;48.932;9.478;2024-03-07T06:38:20;1.10;99.90
2993;DHT22;1506;48.932;9.478;2024-03-07T06:40:48;1.30;99.90
2993;DHT22;1506;48.932;9.478;2024-03-07T06:43:15;1.50;99.90
2993;DHT22;1506;48.932;9.478;2024-03-07T06:45:42;1.60;99.90
2993;DHT22;1506;48.932;9.478;2024-03-07T06:48:09;1.80;99.90
2993;DHT22;1506;48.932;9.478;2024-03-07T06:50:36;1.90;99.90
2993;DHT22;1506;48.932;9.478;2024-03-07T06:53:05;2.10;99.90
2993;DHT22;1506;48.932;9.478;2024-03-07T06:55:34;2.30;99.90
2993;DHT22;1506;48.932;9.478;2024-03-07T06:58:01;2.10;99.90
2993;DHT22;1506;48.932;9.478;2024-03-07T07:00:31;2.20;99.90
2993;DHT22;1506;48.932;9.478;2024-03-07T07:03:04;2.30;99.90
2993;DHT22;1506;48.932;9.478;2024-03-07T07:05:31;2.40;99.90
2993;DHT22;1506;48.932;9.478;2024-03-07T07:07:58;2.50;99.90
2993;DHT22;1506;48.932;9.478;2024-03-07T07:10:26;2.40;99.90
2993;DHT22;1506;48.932;9.478;2024-03-07T07:12:53;2.70;99.90
2993;DHT22;1506;48.932;9.478;2024-03-07T07:15:21;2.90;99.90
2993;DHT22;1506;48.932;9.478;2024-03-07T07:17:49;2.70;99.90
2993;DHT22;1506;48.932;9.478;2024-03-07T07:20:17;2.90;99.90
2993;DHT22;1506;48.932;9.478;2024-03-07T07:22:45;3.20;99.90
2993;DHT22;1506;48.932;9.478;2024-03-07T07:25:15;3.30;99.90
2993;DHT22;1506;48.932;9.478;2024-03-07T07:27:44;3.40;99.90
2993;DHT22;1506;48.932;9.478;2024-03-07T07:30:11;3.90;99.90
2993;DHT22;1506;48.932;9.478;2024-03-07T07:32:39;3.30;99.90
2993;DHT22;1506;48.932;9.478;2024-03-07T07:35:06;3.00;99.90
2993;DHT22;1506;48.932;9.478;2024-03-07T07:37:41;2.90;99.90
2993;DHT22;1506;48.932;9.478;2024-03-07T07:40:11;2.90;99.90
2993;DHT22;1506;48.932;9.478;2024-03-07T07:42:45;2.80;45.80
2993;DHT22;1506;48.932;9.478;2024-03-07T07:45:14;2.90;99.90
2993;DHT22;1506;48.932;9.478;2024-03-07T07:47:42;2.80;36.40
2993;DHT22;1506;48.932;9.478;2024-03-07T07:50:10;2.90;92.00
2993;DHT22;1506;48.932;9.478;2024-03-07T07:52:41;3.00;99.90
2993;DHT22;1506;48.932;9.478;2024-03-07T07:55:08;3.00;99.90
2993;DHT22;1506;48.932;9.478;2024-03-07T07:57:42;2.90;99.90
2993;DHT22;1506;48.932;9.478;2024-03-07T08:00:13;2.90;99.90
2993;DHT22;1506;48.932;9.478;2024-03-07T08:05:18;3.10;99.90
2993;DHT22;1506;48.932;9.478;2024-03-07T08:07:46;3.00;99.90
2993;DHT22;1506;48.932;9.478;2024-03-07T08:10:14;3.00;99.90
2993;DHT22;1506;48.932;9.478;2024-03-07T08:12:42;2.90;99.90
2993;DHT22;1506;48.932;9.478;2024-03-07T08:15:12;3.10;99.90
2993;DHT22;1506;48.932;9.478;2024-03-07T08:17:43;3.30;99.90
2993;DHT22;1506;48.932;9.478;2024-03-07T08:20:12;3.10;99.90
2993;DHT22;1506;48.932;9.478;2024-03-07T08:22:39;3.10;99.90
2993;DHT22;1506;48.932;9.478;2024-03-07T08:25:10;3.10;99.90
2993;DHT22;1506;48.932;9.478;2024-03-07T08:27:37;3.40;99.90
2993;DHT22;1506;48.932;9.478;2024-03-07T08:30:05;3.20;99.90
2993;DHT22;1506;48.932;9.478;2024-03-07T08:32:44;3.40;99.90
2993;DHT22;1506;48.932;9.478;2024-03-07T08:35:11;3.50;99.90
2993;DHT22;1506;48.932;9.478;2024-03-07T08:37:39;3.60;99.90
2993;DHT22;1506;48.932;9.478;2024-03-07T08:40:06;3.70;99.90
2993;DHT22;1506;48.932;9.478;2024-03-07T08:42:34;3.80;35.40
2993;DHT22;1506;48.932;9.478;2024-03-07T08:45:01;4.00;94.50
2993;DHT22;1506;48.932;9.478;2024-03-07T08:47:32;4.20;80.90
2993;DHT22;1506;48.932;9.478;2024-03-07T08:49:59;4.40;94.20
2993;DHT22;1506;48.932;9.478;2024-03-07T08:52:26;4.20;1.00
2993;DHT22;1506;48.932;9.478;2024-03-07T08:54:54;4.30;1.00
2993;DHT22;1506;48.932;9.478;2024-03-07T08:57:21;4.40;1.00
2993;DHT22;1506;48.932;9.478;2024-03-07T08:59:48;4.70;1.00
2993;DHT22;1506;48.932;9.478;2024-03-07T09:02:16;4.80;1.00
2993;DHT22;1506;48.932;9.478;2024-03-07T09:04:43;5.20;1.00
2993;DHT22;1506;48.932;9.478;2024-03-07T09:07:10;5.40;1.00
2993;DHT22;1506;48.932;9.478;2024-03-07T09:09:37;5.90;1.00
2993;DHT22;1506;48.932;9.478;2024-03-07T09:12:04;7.40;99.90
2993;DHT22;1506;48.932;9.478;2024-03-07T09:14:31;8.20;1.00
2993;DHT22;1506;48.932;9.478;2024-03-07T09:16:58;8.20;1.00
2993;DHT22;1506;48.932;9.478;2024-03-07T09:19:25;8.60;1.00
2993;DHT22;1506;48.932;9.478;2024-03-07T09:21:52;9.00;99.90
2993;DHT22;1506;48.932;9.478;2024-03-07T09:24:20;9.60;1.00
2993;DHT22;1506;48.932;9.478;2024-03-07T09:26:50;9.80;1.00
2993;DHT22;1506;48.932;9.478;2024-03-07T09:29:18;9.80;99.90
2993;DHT22;1506;48.932;9.478;2024-03-07T09:31:46;10.00;1.00
2993;DHT22;1506;48.932;9.478;2024-03-07T09:34:13;10.90;1.00
2993;DHT22;1506;48.932;9.478;2024-03-07T09:36:41;11.20;99.90
2993;DHT22;1506;48.932;9.478;2024-03-07T09:39:08;11.00;99.90
2993;DHT22;1506;48.932;9.478;2024-03-07T09:41:35;11.10;99.90
2993;DHT22;1506;48.932;9.478;2024-03-07T09:44:03;11.70;99.90
2993;DHT22;1506;48.932;9.478;2024-03-07T09:46:31;12.60;99.90
2993;DHT22;1506;48.932;9.478;2024-03-07T09:48:58;12.90;99.20
2993;DHT22;1506;48.932;9.478;2024-03-07T09:51:25;12.10;81.30
2993;DHT22;1506;48.932;9.478;2024-03-07T09:53:53;11.50;67.60
2993;DHT22;1506;48.932;9.478;2024-03-07T09:56:20;11.10;99.90
2993;DHT22;1506;48.932;9.478;2024-03-07T09:58:51;11.30;99.90
2993;DHT22;1506;48.932;9.478;2024-03-07T10:01:22;10.60;99.90
2993;DHT22;1506;48.932;9.478;2024-03-07T10:03:52;9.40;99.90
2993;DHT22;1506;48.932;9.478;2024-03-07T10:06:23;8.40;1.00
2993;DHT22;1506;48.932;9.478;2024-03-07T10:08:50;7.90;1.00
2993;DHT22;1506;48.932;9.478;2024-03-07T10:11:18;7.60;45.50
2993;DHT22;1506;48.932;9.478;2024-03-07T10:13:45;7.00;99.90
2993;DHT22;1506;48.932;9.478;2024-03-07T10:16:16;6.80;1.00
2993;DHT22;1506;48.932;9.478;2024-03-07T10:18:46;6.50;99.90
2993;DHT22;1506;48.932;9.478;2024-03-07T10:21:13;6.40;63.80
2993;DHT22;1506;48.932;9.478;2024-03-07T10:23:40;6.50;99.90
2993;DHT22;1506;48.932;9.478;2024-03-07T10:26:07;6.30;99.90
2993;DHT22;1506;48.932;9.478;2024-03-07T10:28:39;6.70;25.50
2993;DHT22;1506;48.932;9.478;2024-03-07T10:31:06;6.90;99.90
2993;DHT22;1506;48.932;9.478;2024-03-07T10:33:39;7.10;1.00
2993;DHT22;1506;48.932;9.478;2024-03-07T10:36:06;7.10;99.90
2993;DHT22;1506;48.932;9.478;2024-03-07T10:38:37;7.30;1.00
2993;DHT22;1506;48.932;9.478;2024-03-07T10:41:04;7.00;1.00
2993;DHT22;1506;48.932;9.478;2024-03-07T10:43:34;7.20;99.90
2993;DHT22;1506;48.932;9.478;2024-03-07T10:46:05;7.30;1.00
2993;DHT22;1506;48.932;9.478;2024-03-07T10:48:35;7.40;1.00
2993;DHT22;1506;48.932;9.478;2024-03-07T10:51:29;7.10;1.00
2993;DHT22;1506;48.932;9.478;2024-03-07T10:54:01;6.80;1.00
2993;DHT22;1506;48.932;9.478;2024-03-07T10:56:40;6.90;99.90
2993;DHT22;1506;48.932;9.478;2024-03-07T10:59:17;7.50;99.90
2993;DHT22;1506;48.932;9.478;2024-03-07T11:01:58;7.90;1.00
2993;DHT22;1506;48.932;9.478;2024-03-07T11:04:26;8.20;1.00
2993;DHT22;1506;48.932;9.478;2024-03-07T11:06:54;8.90;1.00
2993;DHT22;1506;48.932;9.478;2024-03-07T11:09:22;9.30;36.30
2993;DHT22;1506;48.932;9.478;2024-03-07T11:11:50;9.40;1.00
2993;DHT22;1506;48.932;9.478;2024-03-07T11:14:17;8.90;1.00
2993;DHT22;1506;48.932;9.478;2024-03-07T11:16:45;8.40;31.50
2993;DHT22;1506;48.932;9.478;2024-03-07T11:19:25;8.20;1.00
2993;DHT22;1506;48.932;9.478;2024-03-07T11:21:57;8.00;99.90
2993;DHT22;1506;48.932;9.478;2024-03-07T11:24:30;7.90;99.90
2993;DHT22;1506;48.932;9.478;2024-03-07T11:27:04;7.80;99.90
2993;DHT22;1506;48.932;9.478;2024-03-07T11:32:11;7.70;1.00
2993;DHT22;1506;48.932;9.478;2024-03-07T11:34:40;7.50;33.40
2993;DHT22;1506;48.932;9.478;2024-03-07T11:37:17;7.60;1.00
2993;DHT22;1506;48.932;9.478;2024-03-07T11:39:44;7.60;60.80
2993;DHT22;1506;48.932;9.478;2024-03-07T11:44:56;7.70;1.00
2993;DHT22;1506;48.932;9.478;2024-03-07T11:47:34;7.90;1.00
2993;DHT22;1506;48.932;9.478;2024-03-07T11:50:02;7.80;1.00
2993;DHT22;1506;48.932;9.478;2024-03-07T11:52:35;7.90;1.00
2993;DHT22;1506;48.932;9.478;2024-03-07T11:55:03;7.90;99.90
2993;DHT22;1506;48.932;9.478;2024-03-07T11:57:31;7.60;99.90
2993;DHT22;1506;48.932;9.478;2024-03-07T12:00:02;7.90;99.90
2993;DHT22;1506;48.932;9.478;2024-03-07T12:02:38;7.70;44.90
2993;DHT22;1506;48.932;9.478;2024-03-07T12:05:06;7.60;1.00
2993;DHT22;1506;48.932;9.478;2024-03-07T12:07:34;7.70;99.90
2993;DHT22;1506;48.932;9.478;2024-03-07T12:10:04;7.80;1.00
2993;DHT22;1506;48.932;9.478;2024-03-07T12:12:31;7.80;99.90
2993;DHT22;1506;48.932;9.478;2024-03-07T12:15:00;7.70;99.90
2993;DHT22;1506;48.932;9.478;2024-03-07T12:17:29;7.50;33.10
2993;DHT22;1506;48.932;9.478;2024-03-07T12:19:57;7.30;1.00
2993;DHT22;1506;48.932;9.478;2024-03-07T12:22:29;7.30;1.00
2993;DHT22;1506;48.932;9.478;2024-03-07T12:25:01;7.20;1.00
2993;DHT22;1506;48.932;9.478;2024-03-07T12:27:35;7.10;22.70
2993;DHT22;1506;48.932;9.478;2024-03-07T12:30:15;7.00;1.00
2993;DHT22;1506;48.932;9.478;2024-03-07T12:32:47;7.00;99.90
2993;DHT22;1506;48.932;9.478;2024-03-07T12:35:14;7.00;1.00
2993;DHT22;1506;48.932;9.478;2024-03-07T12:37:41;7.00;1.00
2993;DHT22;1506;48.932;9.478;2024-03-07T12:40:12;7.10;99.90
2993;DHT22;1506;48.932;9.478;2024-03-07T12:42:47;7.10;99.90
2993;DHT22;1506;48.932;9.478;2024-03-07T12:45:17;7.00;1.00
2993;DHT22;1506;48.932;9.478;2024-03-07T12:47:47;7.10;99.90
2993;DHT22;1506;48.932;9.478;2024-03-07T12:50:22;7.00;1.00
2993;DHT22;1506;48.932;9.478;2024-03-07T12:52:49;7.10;1.00
2993;DHT22;1506;48.932;9.478;2024-03-07T12:55:18;7.30;1.00
2993;DHT22;1506;48.932;9.478;2024-03-07T12:57:45;7.50;1.00
2993;DHT22;1506;48.932;9.478;2024-03-07T13:00:12;7.30;1.00
2993;DHT22;1506;48.932;9.478;2024-03-07T13:02:46;7.30;99.90
2993;DHT22;1506;48.932;9.478;2024-03-07T13:05:13;7.40;99.90
2993;DHT22;1506;48.932;9.478;2024-03-07T13:07:49;7.20;99.90
2993;DHT22;1506;48.932;9.478;2024-03-07T13:10:17;7.30;20.90
2993;DHT22;1506;48.932;9.478;2024-03-07T13:12:49;7.60;99.90
2993;DHT22;1506;48.932;9.478;2024-03-07T13:15:16;7.90;1.00
2993;DHT22;1506;48.932;9.478;2024-03-07T13:17:43;8.20;1.00
2993;DHT22;1506;48.932;9.478;2024-03-07T13:20:10;7.90;1.00
2993;DHT22;1506;48.932;9.478;2024-03-07T13:22:40;7.90;1.00
2993;DHT22;1506;48.932;9.478;2024-03-07T13:25:10;7.80;95.20
2993;DHT22;1506;48.932;9.478;2024-03-07T13:27:41;7.90;99.90
2993;DHT22;1506;48.932;9.478;2024-03-07T13:30:10;8.30;99.90
2993;DHT22;1506;48.932;9.478;2024-03-07T13:32:42;8.10;1.00
2993;DHT22;1506;48.932;9.478;2024-03-07T13:35:11;8.20;1.00
2993;DHT22;1506;48.932;9.478;2024-03-07T13:37:40;8.60;55.40
2993;DHT22;1506;48.932;9.478;2024-03-07T13:40:07;9.30;1.00
2993;DHT22;1506;48.932;9.478;2024-03-07T13:45:21;9.30;1.00
2993;DHT22;1506;48.932;9.478;2024-03-07T13:47:48;9.00;1.00
2993;DHT22;1506;48.932;9.478;2024-03-07T13:50:16;8.90;1.00
2993;DHT22;1506;48.932;9.478;2024-03-07T13:53:06;8.60;1.00
2993;DHT22;1506;48.932;9.478;2024-03-07T13:55:34;8.10;1.00
2993;DHT22;1506;48.932;9.478;2024-03-07T13:58:04;8.00;99.90
2993;DHT22;1506;48.932;9.478;2024-03-07T14:03:43;8.20;99.90
2993;DHT22;1506;48.932;9.478;2024-03-07T14:06:21;8.40;69.70
2993;DHT22;1506;48.932;9.478;2024-03-07T14:12:02;8.50;1.00
2993;DHT22;1506;48.932;9.478;2024-03-07T14:20:27;7.70;1.00
2993;DHT22;1506;48.932;9.478;2024-03-07T14:25:44;7.90;1.00
2993;DHT22;1506;48.932;9.478;2024-03-07T14:28:19;7.90;1.00
2993;DHT22;1506;48.932;9.478;2024-03-07T14:30:55;7.80;1.00
2993;DHT22;1506;48.932;9.478;2024-03-07T14:33:29;7.70;99.90
2993;DHT22;1506;48.932;9.478;2024-03-07T14:35:58;7.60;1.00
2993;DHT22;1506;48.932;9.478;2024-03-07T14:41:13;7.70;1.00
2993;DHT22;1506;48.932;9.478;2024-03-07T14:43:42;7.70;1.00
2993;DHT22;1506;48.932;9.478;2024-03-07T14:46:10;7.70;1.00
2993;DHT22;1506;48.932;9.478;2024-03-07T14:48:39;7.70;1.00
2993;DHT22;1506;48.932;9.478;2024-03-07T14:51:07;7.60;43.00
2993;DHT22;1506;48.932;9.478;2024-03-07T14:53:35;7.50;99.90
2993;DHT22;1506;48.932;9.478;2024-03-07T14:56:02;7.50;99.90
2993;DHT22;1506;48.932;9.478;2024-03-07T14:58:31;7.50;99.90
2993;DHT22;1506;48.932;9.478;2024-03-07T15:00:58;7.40;3.00
2993;DHT22;1506;48.932;9.478;2024-03-07T15:03:26;7.40;76.00
2993;DHT22;1506;48.932;9.478;2024-03-07T15:05:56;7.30;1.00
2993;DHT22;1506;48.932;9.478;2024-03-07T15:08:23;7.30;1.00
2993;DHT22;1506;48.932;9.478;2024-03-07T15:10:59;7.30;1.00
2993;DHT22;1506;48.932;9.478;2024-03-07T15:13:30;7.30;99.90
2993;DHT22;1506;48.932;9.478;2024-03-07T15:15:57;7.30;99.90
2993;DHT22;1506;48.932;9.478;2024-03-07T15:18:26;7.40;99.90
2993;DHT22;1506;48.932;9.478;2024-03-07T15:20:54;7.40;68.70
2993;DHT22;1506;48.932;9.478;2024-03-07T15:23:21;7.50;99.90
2993;DHT22;1506;48.932;9.478;2024-03-07T15:25:49;7.80;99.90
2993;DHT22;1506;48.932;9.478;2024-03-07T15:28:16;7.60;99.90
2993;DHT22;1506;48.932;9.478;2024-03-07T15:30:43;7.60;99.90
2993;DHT22;1506;48.932;9.478;2024-03-07T15:33:10;7.60;99.90
2993;DHT22;1506;48.932;9.478;2024-03-07T15:35:37;7.70;99.90
2993;DHT22;1506;48.932;9.478;2024-03-07T15:38:04;7.80;99.90
2993;DHT22;1506;48.932;9.478;2024-03-07T15:40:32;7.80;99.90
2993;DHT22;1506;48.932;9.478;2024-03-07T15:42:59;7.90;1.00
2993;DHT22;1506;48.932;9.478;2024-03-07T15:45:28;7.90;1.00
2993;DHT22;1506;48.932;9.478;2024-03-07T15:47:57;7.90;1.00
2993;DHT22;1506;48.932;9.478;2024-03-07T15:50:26;8.00;1.00
2993;DHT22;1506;48.932;9.478;2024-03-07T15:52:56;7.90;1.00
2993;DHT22;1506;48.932;9.478;2024-03-07T15:55:27;8.00;1.00
2993;DHT22;1506;48.932;9.478;2024-03-07T15:57:56;8.00;1.00
2993;DHT22;1506;48.932;9.478;2024-03-07T16:00:25;8.10;1.00
2993;DHT22;1506;48.932;9.478;2024-03-07T16:05:20;8.10;1.00
2993;DHT22;1506;48.932;9.478;2024-03-07T16:07:52;8.10;1.00
2993;DHT22;1506;48.932;9.478;2024-03-07T16:10:20;8.00;1.00
2993;DHT22;1506;48.932;9.478;2024-03-07T16:12:47;8.00;1.00
2993;DHT22;1506;48.932;9.478;2024-03-07T16:15:14;7.90;1.40
2993;DHT22;1506;48.932;9.478;2024-03-07T16:17:42;7.70;87.80
2993;DHT22;1506;48.932;9.478;2024-03-07T16:20:11;7.50;99.90
2993;DHT22;1506;48.932;9.478;2024-03-07T16:22:42;7.50;1.00
2993;DHT22;1506;48.932;9.478;2024-03-07T16:25:09;7.40;99.90
2993;DHT22;1506;48.932;9.478;2024-03-07T16:27:38;7.40;99.90
2993;DHT22;1506;48.932;9.478;2024-03-07T16:30:09;7.40;99.90
2993;DHT22;1506;48.932;9.478;2024-03-07T16:32:38;7.40;1.00
2993;DHT22;1506;48.932;9.478;2024-03-07T16:35:05;7.40;1.00
2993;DHT22;1506;48.932;9.478;2024-03-07T16:37:39;7.30;99.90
2993;DHT22;1506;48.932;9.478;2024-03-07T16:40:07;7.30;99.90
2993;DHT22;1506;48.932;9.478;2024-03-07T16:42:35;7.20;99.90
2993;DHT22;1506;48.932;9.478;2024-03-07T16:45:07;7.20;1.00
2993;DHT22;1506;48.932;9.478;2024-03-07T16:47:37;7.20;99.90
2993;DHT22;1506;48.932;9.478;2024-03-07T16:50:05;7.10;1.00
2993;DHT22;1506;48.932;9.478;2024-03-07T16:52:35;7.10;99.90
2993;DHT22;1506;48.932;9.478;2024-03-07T16:55:04;7.10;1.00
2993;DHT22;1506;48.932;9.478;2024-03-07T16:57:38;7.00;1.00
2993;DHT22;1506;48.932;9.478;2024-03-07T17:00:06;7.00;99.90
2993;DHT22;1506;48.932;9.478;2024-03-07T17:02:34;6.90;99.90
2993;DHT22;1506;48.932;9.478;2024-03-07T17:05:01;6.90;99.90